»·PEaware :: DFGCW KEUG-KOTH

DFGCW :: KEUG-KOTH

FLIGHT INFORMATION

Flight Status: Arrived
Operator: Unknown
More flights by this operator :: More flights under this callsign
Pilot: Klaus A. (15485)
Aircraft: PILATUS PC-12 EAGLE
(PC12)
More flights by this aircraft type
Origin: KEUG Mahlon Sweet
United States
Destination: KOTH North Bend Mun
United States
More flights between these airports :: More routes between these airports
Route: +EUG V121 OTH
File this flight plan on PilotEdge
Remarks: / G Newbie Custom Weather
Altitude:
(Current/Filed)
6,000ft
Speed:
(Current/Filed)
230kts
Departed: 03-May-18 08:47 AM
Arrived: 03-May-18 09:19 AM
Distance/Time
Traveled:
61nm/0:32
Distance/Time
To Go:
Arrived

Flight Plot

Page will automatically refresh every two minutes.

Flight plan parsing failed; only flown route is shown


Map Options




Map Legend


Flown Route
Filed Route
Departure Airport
Arrival Airport
Navaid (VOR, NDB)
Fix

Horizontal Profiles

Position Reports

Time Latitude Longitude Heading Altitude Ground
Speed
03-May-18 08:24 44.121841 -123.212135 211 380ft 0kts
03-May-18 08:25 44.121841 -123.212135 211 380ft 0kts
03-May-18 08:26 44.121841 -123.212135 211 380ft 0kts
03-May-18 08:27 44.121841 -123.212135 211 380ft 0kts
03-May-18 08:28 44.121841 -123.212135 211 380ft 0kts
03-May-18 08:29 44.121841 -123.212135 211 380ft 0kts
03-May-18 08:30 44.121841 -123.212135 211 380ft 0kts
03-May-18 08:31 44.121841 -123.212135 211 380ft 0kts
03-May-18 08:32 44.121841 -123.212135 211 380ft 0kts
03-May-18 08:33 44.121841 -123.212135 211 380ft 0kts
03-May-18 08:34 44.121841 -123.212135 211 380ft 0kts
03-May-18 08:35 44.121841 -123.212135 211 380ft 0kts
03-May-18 08:36 44.121841 -123.212135 211 380ft 0kts
03-May-18 08:37 44.121835 -123.212141 209 380ft 0kts
03-May-18 08:38 44.121005 -123.213973 262 380ft 8kts
03-May-18 08:39 44.124896 -123.217079 1 380ft 22kts
03-May-18 08:40 44.131616 -123.217244 0 380ft 25kts
03-May-18 08:41 44.135305 -123.217807 264 380ft 0kts
03-May-18 08:42 44.135305 -123.217807 264 380ft 0kts
03-May-18 08:43 44.135305 -123.217807 264 380ft 0kts
03-May-18 08:44 44.135305 -123.217807 264 380ft 0kts
03-May-18 08:45 44.135305 -123.217807 264 380ft 0kts
03-May-18 08:46 44.131311 -123.219070 180 380ft 88kts
03-May-18 08:47 44.093531 -123.216291 178 1868ft 162kts
03-May-18 08:48 44.045961 -123.211070 178 3568ft 182kts
03-May-18 08:49 43.997009 -123.222510 242 4831ft 201kts
03-May-18 08:50 44.003049 -123.296895 278 5907ft 211kts
03-May-18 08:51 44.005350 -123.381502 236 5915ft 236kts
03-May-18 08:52 43.959046 -123.446243 226 6003ft 239kts
03-May-18 08:53 43.911594 -123.511188 226 6003ft 240kts
03-May-18 08:54 43.864969 -123.574430 226 6003ft 240kts
03-May-18 08:55 43.823892 -123.643569 205 6035ft 244kts
03-May-18 08:56 43.771558 -123.696750 224 6032ft 244kts
03-May-18 08:57 43.723486 -123.759719 225 5998ft 245kts
03-May-18 08:58 43.674683 -123.824843 225 5996ft 242kts
03-May-18 08:59 43.638133 -123.896798 255 6009ft 235kts
03-May-18 09:00 43.620059 -123.981834 255 6024ft 235kts
03-May-18 09:01 43.601359 -124.068278 255 6025ft 237kts
03-May-18 09:02 43.582606 -124.154011 255 6015ft 219kts
03-May-18 09:03 43.565214 -124.232484 255 6001ft 215kts
03-May-18 09:04 43.548100 -124.311153 255 5997ft 213kts
03-May-18 09:06 43.531536 -124.387761 255 5380ft 201kts
03-May-18 09:07 43.515717 -124.460106 255 4368ft 195kts
03-May-18 09:08 43.500150 -124.532458 255 3366ft 198kts
03-May-18 09:09 43.480218 -124.597096 199 2993ft 172kts
03-May-18 09:10 43.441364 -124.572666 145 2999ft 155kts
03-May-18 09:11 43.405390 -124.540517 145 3004ft 158kts
03-May-18 09:12 43.368996 -124.507862 145 2992ft 148kts
03-May-18 09:13 43.360148 -124.460056 84 3000ft 140kts
03-May-18 09:14 43.363054 -124.403905 84 2495ft 143kts
03-May-18 09:15 43.374115 -124.359402 58 1687ft 117kts
03-May-18 09:16 43.388206 -124.325296 61 1107ft 98kts
03-May-18 09:17 43.401623 -124.292453 61 595ft 101kts
03-May-18 09:18 43.415701 -124.258029 58 38ft 98kts
03-May-18 09:19 43.421595 -124.243083 133 23ft 12kts
03-May-18 09:20 43.420193 -124.244149 237 23ft 12kts
03-May-18 09:21 43.417924 -124.246973 181 23ft 9kts
03-May-18 09:22 43.417169 -124.246665 149 22ft 0kts
03-May-18 09:23 43.417170 -124.246665 149 23ft 0kts
03-May-18 09:24 43.417170 -124.246665 149 23ft 0kts

Navigation Log

Ident Type
Flight plan parsing failed, navigation log unavailable